Clover, Idaho
Current Conditions -  °F | °C
As of 6:53 AM on Sunday 25 Jan 2015 (Local Time) from KJER Reporting Station
Clear Clear  
Wind Chill: 17°   Ceiling: Unl
Heat Index: 27°   Visibility: 10mi
Dew Point: 24°   Wind: 12mph
Humidity: 89%   Direction: 50°NE
Pressure: 30.42"   Gusts: NA
Location:  42.6472°N, 114.901°W
Report Text: KJER 251353Z AUTO 05010KT 10SM CLR M03/M04 A3042 RMK AO2 SLP332 T10281044
Loading
Personal Weather Stations






























Interactive Weather Map New forecast layout! Learn more

10-Day Weather Forecast

Advertisements
Track Severe Weather on mobile